Time;durP1;ratioP1;P1;durP2;ratioP2;P2;SDS_P1;SDS_P2;PMS_P1;PMS_P2;Temp;Humidity;BMP_temperature;BMP_pressure;BME280_temperature;BME280_humidity;BME280_pressure;Samples;Min_cycle;Max_cycle;Signal;HPM_P1;HPM_P2
2023/10/24 05:42:07;;;;;;;;;;;18.60;99.90;;;;;;7349464;19;9399;-77
2023/10/24 05:44:36;;;;;;;;;;;17.10;99.90;;;;;;7351737;19;9276;-78
2023/10/24 05:47:06;;;;;;;;;;;15.70;99.90;;;;;;7351446;19;9325;-80
2023/10/24 05:49:35;;;;;;;;;;;14.90;99.90;;;;;;7351800;19;9486;-85
2023/10/24 05:52:04;;;;;;;;;;;14.00;99.90;;;;;;7352680;19;9425;-89
2023/10/24 05:54:36;;;;;;;;;;;13.30;99.90;;;;;;7348418;19;8944;-89
2023/10/24 05:57:07;;;;;;;;;;;12.80;99.90;;;;;;7348724;19;10589;-89
2023/10/24 05:59:36;;;;;;;;;;;12.60;99.90;;;;;;7341259;19;9504;-86
2023/10/24 06:02:05;;;;;;;;;;;12.40;99.90;;;;;;7350240;19;9402;-86
2023/10/24 06:04:36;;;;;;;;;;;12.20;99.90;;;;;;7350262;19;9512;-85
2023/10/24 06:07:05;;;;;;;;;;;12.10;99.90;;;;;;7348738;19;9462;-85
2023/10/24 06:09:34;;;;;;;;;;;11.90;99.90;;;;;;7350522;19;11623;-87
2023/10/24 06:12:03;;;;;;;;;;;11.80;99.90;;;;;;7351968;19;9406;-87
2023/10/24 06:14:35;;;;;;;;;;;11.70;99.90;;;;;;7350750;19;9180;-85
2023/10/24 06:17:04;;;;;;;;;;;11.50;99.90;;;;;;7352564;19;9227;-86
2023/10/24 06:19:39;;;;;;;;;;;11.50;99.90;;;;;;7345199;19;9186;-82
2023/10/24 06:22:08;;;;;;;;;;;11.40;99.90;;;;;;7339626;19;9492;-90
2023/10/24 06:24:37;;;;;;;;;;;11.40;99.90;;;;;;7341901;19;9321;-88
2023/10/24 06:27:09;;;;;;;;;;;11.40;99.90;;;;;;7337102;19;9254;-88
2023/10/24 06:29:40;;;;;;;;;;;11.40;99.90;;;;;;7346512;19;11692;-88
2023/10/24 06:32:09;;;;;;;;;;;11.40;99.90;;;;;;7351462;19;9524;-88
2023/10/24 06:34:38;;;;;;;;;;;11.40;99.90;;;;;;7347283;19;9455;-89
2023/10/24 06:37:07;;;;;;;;;;;11.30;99.90;;;;;;7349466;19;9177;-88
2023/10/24 06:39:36;;;;;;;;;;;11.30;99.90;;;;;;7348014;19;9245;-89
2023/10/24 06:42:05;;;;;;;;;;;11.30;99.90;;;;;;7349623;19;9303;-88
2023/10/24 06:44:34;;;;;;;;;;;11.30;99.90;;;;;;7350733;19;9177;-89
2023/10/24 06:47:07;;;;;;;;;;;11.30;99.90;;;;;;7350519;19;9343;-88
2023/10/24 06:49:35;;;;;;;;;;;11.30;99.90;;;;;;7347963;19;8957;-88
2023/10/24 06:52:06;;;;;;;;;;;11.30;99.90;;;;;;7333977;19;9743;-88
2023/10/24 06:54:35;;;;;;;;;;;11.30;99.90;;;;;;7321873;19;9403;-86
2023/10/24 06:57:04;;;;;;;;;;;11.40;99.90;;;;;;7321341;19;9461;-87
2023/10/24 06:59:33;;;;;;;;;;;11.40;99.90;;;;;;7319120;19;9253;-88
2023/10/24 07:02:02;;;;;;;;;;;11.30;99.90;;;;;;7320154;19;9259;-87
2023/10/24 07:04:34;;;;;;;;;;;11.30;99.90;;;;;;7319674;19;9450;-87
2023/10/24 07:07:03;;;;;;;;;;;11.30;99.90;;;;;;7321196;19;9410;-87
2023/10/24 07:09:32;;;;;;;;;;;11.30;99.90;;;;;;7318488;19;9471;-88
2023/10/24 07:12:01;;;;;;;;;;;11.30;99.90;;;;;;7320255;19;9214;-88
2023/10/24 07:14:30;;;;;;;;;;;11.20;99.90;;;;;;7320961;19;9639;-87
2023/10/24 07:16:59;;;;;;;;;;;11.20;99.90;;;;;;7319953;19;9518;-87
2023/10/24 07:19:27;;;;;;;;;;;11.20;99.90;;;;;;7319414;19;9555;-88
2023/10/24 07:21:59;;;;;;;;;;;11.10;99.90;;;;;;7321139;19;9404;-87
2023/10/24 07:24:28;;;;;;;;;;;11.10;99.90;;;;;;7320588;19;9332;-86
2023/10/24 07:26:57;;;;;;;;;;;11.10;99.90;;;;;;7317439;19;9239;-87
2023/10/24 07:29:27;;;;;;;;;;;11.10;99.90;;;;;;7316333;19;9267;-87
2023/10/24 07:31:56;;;;;;;;;;;11.10;99.90;;;;;;7319849;19;9307;-86
2023/10/24 07:34:25;;;;;;;;;;;11.10;99.90;;;;;;7314448;19;9234;-87
2023/10/24 07:36:54;;;;;;;;;;;11.30;99.90;;;;;;7319092;19;10446;-84
2023/10/24 07:39:26;;;;;;;;;;;11.30;99.90;;;;;;7319671;19;9162;-86
2023/10/24 07:41:55;;;;;;;;;;;11.30;99.90;;;;;;7321382;19;9503;-85
2023/10/24 07:44:23;;;;;;;;;;;11.40;99.90;;;;;;7320535;19;9359;-86
2023/10/24 07:46:52;;;;;;;;;;;11.50;99.90;;;;;;7319521;19;9457;-86
2023/10/24 07:49:22;;;;;;;;;;;11.50;99.90;;;;;;7319089;19;9296;-86
2023/10/24 07:51:51;;;;;;;;;;;11.50;99.90;;;;;;7318543;19;9354;-85
2023/10/24 07:54:20;;;;;;;;;;;11.50;99.90;;;;;;7320023;19;9272;-88
2023/10/24 07:56:52;;;;;;;;;;;11.60;99.90;;;;;;7318423;19;9312;-86
2023/10/24 07:59:21;;;;;;;;;;;11.70;99.90;;;;;;7320045;19;9348;-85
2023/10/24 08:01:50;;;;;;;;;;;11.70;99.90;;;;;;7317253;19;9568;-85
2023/10/24 08:04:18;;;;;;;;;;;11.70;99.90;;;;;;7316345;19;9493;-86
2023/10/24 08:06:47;;;;;;;;;;;11.80;99.90;;;;;;7312223;19;9368;-86
2023/10/24 08:09:16;;;;;;;;;;;11.70;99.90;;;;;;7319404;19;9615;-86
2023/10/24 08:11:45;;;;;;;;;;;11.90;99.90;;;;;;7319782;19;9329;-85
2023/10/24 08:14:17;;;;;;;;;;;11.90;99.90;;;;;;7318965;19;9490;-86
2023/10/24 08:16:45;;;;;;;;;;;11.90;99.90;;;;;;7315743;19;9293;-85
2023/10/24 08:19:14;;;;;;;;;;;11.90;99.90;;;;;;7318000;19;11249;-86
2023/10/24 08:21:43;;;;;;;;;;;11.90;99.90;;;;;;7317882;19;9322;-86
2023/10/24 08:24:12;;;;;;;;;;;11.90;99.90;;;;;;7317814;19;9313;-85
2023/10/24 08:26:41;;;;;;;;;;;12.00;99.90;;;;;;7319340;19;10123;-86
2023/10/24 08:29:10;;;;;;;;;;;12.00;99.90;;;;;;7318324;19;9257;-85
2023/10/24 08:31:41;;;;;;;;;;;12.00;99.90;;;;;;7317892;19;9174;-86
2023/10/24 08:34:12;;;;;;;;;;;12.10;99.90;;;;;;7318590;19;10718;-87
2023/10/24 08:36:41;;;;;;;;;;;12.10;99.90;;;;;;7317742;19;9398;-86
2023/10/24 08:39:09;;;;;;;;;;;12.20;99.90;;;;;;7316773;19;9164;-85
2023/10/24 08:41:38;;;;;;;;;;;12.30;99.90;;;;;;7319054;19;10432;-85
2023/10/24 08:44:08;;;;;;;;;;;12.30;99.90;;;;;;7317767;19;9625;-86
2023/10/24 08:46:37;;;;;;;;;;;12.30;99.90;;;;;;7319689;19;9137;-86
2023/10/24 08:49:10;;;;;;;;;;;12.40;99.90;;;;;;7319100;19;9460;-86
2023/10/24 08:51:40;;;;;;;;;;;12.50;99.90;;;;;;7318587;19;10447;-85
2023/10/24 08:54:09;;;;;;;;;;;12.50;99.90;;;;;;7319796;19;9132;-86
2023/10/24 08:56:40;;;;;;;;;;;12.50;99.90;;;;;;7322416;19;9517;-85
2023/10/24 08:59:11;;;;;;;;;;;12.50;99.90;;;;;;7319761;19;9486;-85
2023/10/24 09:01:42;;;;;;;;;;;12.40;99.90;;;;;;7320890;19;9221;-87
2023/10/24 09:04:14;;;;;;;;;;;12.30;99.90;;;;;;7317571;19;9327;-84
2023/10/24 09:06:43;;;;;;;;;;;12.30;99.90;;;;;;7315504;19;9260;-85
2023/10/24 09:09:12;;;;;;;;;;;12.30;99.90;;;;;;7318786;19;9509;-85
2023/10/24 09:11:56;;;;;;;;;;;12.40;99.90;;;;;;7318006;19;9274;-85
2023/10/24 09:14:27;;;;;;;;;;;12.50;99.90;;;;;;7316409;19;9281;-84
2023/10/24 09:16:57;;;;;;;;;;;12.50;99.90;;;;;;7317784;19;9462;-84
2023/10/24 09:19:30;;;;;;;;;;;12.40;99.90;;;;;;7317758;19;9230;-85
2023/10/24 09:21:59;;;;;;;;;;;12.40;99.90;;;;;;7317888;19;10592;-85
2023/10/24 09:24:29;;;;;;;;;;;12.40;99.90;;;;;;7317323;19;9178;-86
2023/10/24 09:26:59;;;;;;;;;;;12.50;99.90;;;;;;7316642;19;9755;-84
2023/10/24 09:29:29;;;;;;;;;;;12.50;99.90;;;;;;7316304;19;10417;-85
2023/10/24 09:31:59;;;;;;;;;;;12.60;99.90;;;;;;7316366;19;10693;-85
2023/10/24 09:34:32;;;;;;;;;;;12.50;99.90;;;;;;7315846;19;9253;-86
2023/10/24 09:37:10;;;;;;;;;;;12.50;99.90;;;;;;7318137;19;9600;-84
2023/10/24 09:39:56;;;;;;;;;;;12.60;99.90;;;;;;7316246;19;9122;-85
2023/10/24 09:42:27;;;;;;;;;;;12.70;99.90;;;;;;7316111;19;9377;-85
2023/10/24 09:44:58;;;;;;;;;;;12.80;99.90;;;;;;7312372;19;9494;-84
2023/10/24 09:47:28;;;;;;;;;;;13.00;99.90;;;;;;7309449;19;9187;-84
2023/10/24 09:50:00;;;;;;;;;;;13.10;99.90;;;;;;7310223;19;9473;-84
2023/10/24 09:52:31;;;;;;;;;;;13.10;99.90;;;;;;7300268;19;9326;-81
2023/10/24 09:55:01;;;;;;;;;;;13.20;99.90;;;;;;7308811;19;9458;-89
2023/10/24 09:57:33;;;;;;;;;;;13.20;99.90;;;;;;7318068;19;9238;-89
2023/10/24 10:00:03;;;;;;;;;;;13.10;99.90;;;;;;7317543;19;9320;-90
2023/10/24 10:02:32;;;;;;;;;;;13.10;99.90;;;;;;7313349;19;9237;-84
2023/10/24 10:05:03;;;;;;;;;;;13.10;99.90;;;;;;7311197;19;9125;-85
2023/10/24 10:07:32;;;;;;;;;;;13.10;99.90;;;;;;7330783;19;9335;-93
2023/10/24 10:10:04;;;;;;;;;;;13.10;99.90;;;;;;7327537;19;8944;-87
2023/10/24 10:12:36;;;;;;;;;;;13.10;99.90;;;;;;7316183;19;10384;-83
2023/10/24 10:15:23;;;;;;;;;;;13.10;99.90;;;;;;7313710;19;10486;-85
2023/10/24 10:18:10;;;;;;;;;;;13.00;99.90;;;;;;7312093;19;9717;-78
2023/10/24 10:20:58;;;;;;;;;;;13.10;99.90;;;;;;7315818;19;9191;-79
2023/10/24 10:23:47;;;;;;;;;;;13.10;99.90;;;;;;7300357;19;9138;-80
2023/10/24 10:26:25;;;;;;;;;;;13.10;99.90;;;;;;7304940;19;9320;-82
2023/10/24 10:29:14;;;;;;;;;;;13.00;99.90;;;;;;7313655;19;9237;-81
2023/10/24 10:32:15;;;;;;;;;;;13.00;99.90;;;;;;7321976;19;9137;-81
2023/10/24 10:34:46;;;;;;;;;;;13.00;99.90;;;;;;7313507;19;9257;-79
2023/10/24 10:37:17;;;;;;;;;;;13.10;99.90;;;;;;7317500;19;9231;-77
2023/10/24 10:40:23;;;;;;;;;;;13.10;99.90;;;;;;7317200;19;9257;-83
2023/10/24 10:42:53;;;;;;;;;;;13.10;99.90;;;;;;7320963;19;9227;-81
2023/10/24 10:45:27;;;;;;;;;;;13.00;99.90;;;;;;7320847;19;9503;-82
2023/10/24 10:48:00;;;;;;;;;;;13.00;99.90;;;;;;7319473;19;9511;-80
2023/10/24 10:50:34;;;;;;;;;;;12.90;99.90;;;;;;7321415;19;9457;-77
2023/10/24 10:53:22;;;;;;;;;;;12.70;99.90;;;;;;7321665;19;9270;-78
2023/10/24 10:56:13;;;;;;;;;;;12.70;99.90;;;;;;7321465;19;9148;-80
2023/10/24 10:59:02;;;;;;;;;;;12.60;99.90;;;;;;7320649;19;9310;-76
2023/10/24 11:01:41;;;;;;;;;;;12.60;99.90;;;;;;7316407;19;9247;-77
2023/10/24 11:04:15;;;;;;;;;;;12.50;99.90;;;;;;7313464;19;9552;-77
2023/10/24 11:06:53;;;;;;;;;;;12.60;99.90;;;;;;7318291;19;9308;-77
2023/10/24 11:09:29;;;;;;;;;;;12.60;99.90;;;;;;7317201;19;9285;-77
2023/10/24 11:12:25;;;;;;;;;;;12.60;99.90;;;;;;7320630;19;9297;-76
2023/10/24 11:15:24;;;;;;;;;;;12.70;99.90;;;;;;7320427;19;10048;-77
2023/10/24 11:17:53;;;;;;;;;;;12.60;99.90;;;;;;7314810;19;9135;-77
2023/10/24 11:20:23;;;;;;;;;;;12.60;99.90;;;;;;7312397;19;9631;-77
2023/10/24 11:22:53;;;;;;;;;;;12.60;99.90;;;;;;7312771;19;9373;-77
2023/10/24 11:25:24;;;;;;;;;;;12.60;99.90;;;;;;7320355;19;9667;-77
2023/10/24 11:27:53;;;;;;;;;;;12.60;99.90;;;;;;7317155;19;10079;-77
2023/10/24 11:30:23;;;;;;;;;;;12.70;99.90;;;;;;7319897;19;9217;-76
2023/10/24 11:32:52;;;;;;;;;;;12.70;99.90;;;;;;7307470;19;9370;-76
2023/10/24 11:35:22;;;;;;;;;;;12.60;99.90;;;;;;7315206;19;9340;-76
2023/10/24 11:37:51;;;;;;;;;;;12.60;99.90;;;;;;7316926;19;10807;-76
2023/10/24 11:40:20;;;;;;;;;;;12.70;99.90;;;;;;7316369;19;9252;-76
2023/10/24 11:42:51;;;;;;;;;;;12.70;99.90;;;;;;7314932;19;9274;-76
2023/10/24 11:45:22;;;;;;;;;;;12.70;99.90;;;;;;7317877;19;9325;-76
2023/10/24 11:47:55;;;;;;;;;;;12.80;99.90;;;;;;7317043;19;9165;-76
2023/10/24 11:50:38;;;;;;;;;;;12.80;99.90;;;;;;7315437;19;9426;-76
2023/10/24 11:53:08;;;;;;;;;;;12.80;99.90;;;;;;7319485;19;9421;-76
2023/10/24 11:55:37;;;;;;;;;;;12.90;99.90;;;;;;7318251;19;10291;-76
2023/10/24 11:58:11;;;;;;;;;;;13.00;99.90;;;;;;7315892;19;9297;-76
2023/10/24 12:00:44;;;;;;;;;;;13.00;99.90;;;;;;7316013;19;9707;-75
2023/10/24 12:03:13;;;;;;;;;;;13.00;99.90;;;;;;7313553;19;9378;-76
2023/10/24 12:05:54;;;;;;;;;;;13.00;99.90;;;;;;7318330;19;9493;-76
2023/10/24 12:08:27;;;;;;;;;;;13.10;99.90;;;;;;7319970;19;9324;-76
2023/10/24 12:10:56;;;;;;;;;;;13.10;99.90;;;;;;7314641;19;9352;-76
2023/10/24 12:13:28;;;;;;;;;;;13.10;99.90;;;;;;7318921;19;9517;-76
2023/10/24 12:15:59;;;;;;;;;;;13.20;99.90;;;;;;7320075;19;9221;-76
2023/10/24 12:18:27;;;;;;;;;;;13.20;99.90;;;;;;7318790;19;9489;-76
2023/10/24 12:20:56;;;;;;;;;;;13.20;99.90;;;;;;7319826;19;9480;-76
2023/10/24 12:23:26;;;;;;;;;;;13.20;99.90;;;;;;7315524;19;9542;-76
2023/10/24 12:25:55;;;;;;;;;;;13.30;99.90;;;;;;7318121;19;9257;-76
2023/10/24 12:28:24;;;;;;;;;;;13.30;99.90;;;;;;7317384;19;10358;-76
2023/10/24 12:30:55;;;;;;;;;;;13.30;99.90;;;;;;7317931;19;9235;-75
2023/10/24 12:33:25;;;;;;;;;;;13.30;99.90;;;;;;7316279;19;9178;-76
2023/10/24 12:35:55;;;;;;;;;;;13.30;99.90;;;;;;7315761;19;9286;-76
2023/10/24 12:38:24;;;;;;;;;;;13.30;99.90;;;;;;7315239;19;9265;-76
2023/10/24 12:40:53;;;;;;;;;;;13.30;99.90;;;;;;7316028;19;9545;-76
2023/10/24 12:43:22;;;;;;;;;;;13.30;99.90;;;;;;7317307;19;10162;-76
2023/10/24 12:45:55;;;;;;;;;;;13.20;99.90;;;;;;7317205;19;10263;-76
2023/10/24 12:48:24;;;;;;;;;;;13.30;99.90;;;;;;7318188;19;9378;-76
2023/10/24 12:50:52;;;;;;;;;;;13.20;99.90;;;;;;7312402;19;9785;-76
2023/10/24 12:53:22;;;;;;;;;;;13.20;99.90;;;;;;7313523;19;9283;-76
2023/10/24 12:55:51;;;;;;;;;;;13.20;99.90;;;;;;7314735;19;9122;-76
2023/10/24 12:58:20;;;;;;;;;;;13.20;99.90;;;;;;7315652;19;9117;-76
2023/10/24 13:00:49;;;;;;;;;;;13.20;99.90;;;;;;7317634;19;9543;-76
2023/10/24 13:03:20;;;;;;;;;;;13.20;99.90;;;;;;7316298;19;10660;-76
2023/10/24 13:05:49;;;;;;;;;;;13.20;99.90;;;;;;7317546;19;10434;-77
2023/10/24 13:08:18;;;;;;;;;;;13.20;99.90;;;;;;7315690;19;9201;-77
2023/10/24 13:10:47;;;;;;;;;;;13.20;99.90;;;;;;7318861;19;9153;-77
2023/10/24 13:13:16;;;;;;;;;;;13.30;99.90;;;;;;7316139;19;9334;-76
2023/10/24 13:15:45;;;;;;;;;;;13.30;99.90;;;;;;7316800;19;9579;-77
2023/10/24 13:18:14;;;;;;;;;;;13.30;99.90;;;;;;7313115;19;9266;-76
2023/10/24 13:20:46;;;;;;;;;;;13.40;99.90;;;;;;7311245;19;9457;-76
2023/10/24 13:23:14;;;;;;;;;;;13.50;99.90;;;;;;7306615;19;9570;-76
2023/10/24 13:25:43;;;;;;;;;;;13.60;99.90;;;;;;7310541;19;9351;-78
2023/10/24 13:28:12;;;;;;;;;;;13.60;99.90;;;;;;7319226;19;9207;-79
2023/10/24 13:30:44;;;;;;;;;;;13.60;99.90;;;;;;7315382;19;9549;-78
2023/10/24 13:33:12;;;;;;;;;;;13.50;99.90;;;;;;7318274;19;9267;-79
2023/10/24 13:35:41;;;;;;;;;;;13.50;99.90;;;;;;7312666;19;9456;-78
2023/10/24 13:38:13;;;;;;;;;;;13.50;99.90;;;;;;7309868;19;9438;-80
2023/10/24 13:40:42;;;;;;;;;;;13.40;99.90;;;;;;7316628;19;9382;-79
2023/10/24 13:43:11;;;;;;;;;;;13.40;99.90;;;;;;7318713;19;9205;-79
2023/10/24 13:45:40;;;;;;;;;;;13.40;99.90;;;;;;7312958;19;9490;-81
2023/10/24 13:48:09;;;;;;;;;;;13.30;99.90;;;;;;7309834;19;9474;-79
2023/10/24 13:50:38;;;;;;;;;;;13.50;99.90;;;;;;7306003;19;9674;-79
2023/10/24 13:53:07;;;;;;;;;;;13.50;99.90;;;;;;7313499;19;9272;-79
2023/10/24 13:55:40;;;;;;;;;;;13.50;99.90;;;;;;7310039;19;9458;-80
2023/10/24 13:58:09;;;;;;;;;;;13.50;99.90;;;;;;7309536;19;10318;-80
2023/10/24 14:00:38;;;;;;;;;;;13.50;99.90;;;;;;7312240;19;9482;-76
2023/10/24 14:03:07;;;;;;;;;;;13.50;99.90;;;;;;7319004;19;10385;-79
2023/10/24 14:05:39;;;;;;;;;;;13.50;99.90;;;;;;7322101;19;9225;-77
2023/10/24 14:08:08;;;;;;;;;;;13.50;99.90;;;;;;7322926;19;9591;-80
2023/10/24 14:10:39;;;;;;;;;;;13.50;99.90;;;;;;7323953;19;9502;-81
2023/10/24 14:13:08;;;;;;;;;;;13.60;99.90;;;;;;7320424;19;9137;-80
2023/10/24 14:15:38;;;;;;;;;;;13.50;99.90;;;;;;7322058;19;9317;-79
2023/10/24 14:18:07;;;;;;;;;;;13.50;99.90;;;;;;7324396;19;9392;-80
2023/10/24 14:20:36;;;;;;;;;;;13.50;99.90;;;;;;7320669;19;9243;-79
2023/10/24 14:23:05;;;;;;;;;;;13.50;99.90;;;;;;7322910;19;9317;-80
2023/10/24 14:25:34;;;;;;;;;;;13.50;99.90;;;;;;7319604;19;9111;-79
2023/10/24 14:28:06;;;;;;;;;;;13.50;99.90;;;;;;7324244;19;9493;-79
2023/10/24 14:30:35;;;;;;;;;;;13.50;99.90;;;;;;7323778;19;9336;-79
2023/10/24 14:33:04;;;;;;;;;;;13.40;99.90;;;;;;7319884;19;9328;-78
2023/10/24 14:35:33;;;;;;;;;;;13.40;99.90;;;;;;7320736;19;9232;-78
2023/10/24 14:38:02;;;;;;;;;;;13.50;99.90;;;;;;7323039;19;9440;-76
2023/10/24 14:40:32;;;;;;;;;;;13.60;99.90;;;;;;7322459;19;9414;-76
2023/10/24 14:43:01;;;;;;;;;;;13.60;99.90;;;;;;7321875;19;9327;-76
2023/10/24 14:45:32;;;;;;;;;;;13.50;99.90;;;;;;7321422;19;9276;-78
2023/10/24 14:48:02;;;;;;;;;;;13.50;99.90;;;;;;7322136;19;9606;-79
2023/10/24 14:50:32;;;;;;;;;;;13.50;99.90;;;;;;7317102;19;9604;-77
2023/10/24 14:53:01;;;;;;;;;;;13.50;99.90;;;;;;7318007;19;9690;-78
2023/10/24 14:55:31;;;;;;;;;;;13.40;99.90;;;;;;7316336;19;9296;-76
2023/10/24 14:58:01;;;;;;;;;;;13.40;99.90;;;;;;7321786;19;9361;-77
2023/10/24 15:00:32;;;;;;;;;;;13.40;99.90;;;;;;7322072;19;9303;-76
2023/10/24 15:03:01;;;;;;;;;;;13.40;99.90;;;;;;7320260;19;11398;-76
2023/10/24 15:05:30;;;;;;;;;;;13.30;99.90;;;;;;7321659;19;9636;-77
2023/10/24 15:08:00;;;;;;;;;;;13.30;99.90;;;;;;7319243;19;9265;-76
2023/10/24 15:10:29;;;;;;;;;;;13.20;99.90;;;;;;7323608;19;9671;-76
2023/10/24 15:12:57;;;;;;;;;;;13.10;99.90;;;;;;7318523;19;9469;-76
2023/10/24 15:15:26;;;;;;;;;;;13.10;99.90;;;;;;7321543;19;9457;-75
2023/10/24 15:17:59;;;;;;;;;;;13.10;99.90;;;;;;7321044;19;9235;-77
2023/10/24 15:20:29;;;;;;;;;;;13.10;99.90;;;;;;7320409;19;9679;-74
2023/10/24 15:22:58;;;;;;;;;;;13.10;99.90;;;;;;7317067;19;9334;-75
2023/10/24 15:25:27;;;;;;;;;;;13.10;99.90;;;;;;7314397;19;9312;-77
2023/10/24 15:27:56;;;;;;;;;;;13.10;99.90;;;;;;7318377;19;10358;-75
2023/10/24 15:30:24;;;;;;;;;;;13.00;99.90;;;;;;7317402;19;9495;-74
2023/10/24 15:32:53;;;;;;;;;;;13.00;99.90;;;;;;7312385;19;9382;-76
2023/10/24 15:35:25;;;;;;;;;;;13.00;99.90;;;;;;7317733;19;9119;-76
2023/10/24 15:37:54;;;;;;;;;;;13.10;99.90;;;;;;7316772;19;9872;-76
2023/10/24 15:40:23;;;;;;;;;;;13.00;99.90;;;;;;7314960;19;9260;-78
2023/10/24 15:42:52;;;;;;;;;;;12.90;99.90;;;;;;7316718;19;9403;-80
2023/10/24 15:45:21;;;;;;;;;;;12.90;99.90;;;;;;7312070;19;9491;-79
2023/10/24 15:47:50;;;;;;;;;;;12.80;99.90;;;;;;7318268;19;9130;-80
2023/10/24 15:50:19;;;;;;;;;;;12.70;99.90;;;;;;7318915;19;9426;-80
2023/10/24 15:52:51;;;;;;;;;;;12.60;99.90;;;;;;7319867;19;9254;-79
2023/10/24 15:55:20;;;;;;;;;;;12.60;99.90;;;;;;7317376;19;9540;-79
2023/10/24 15:57:49;;;;;;;;;;;12.60;99.90;;;;;;7321772;19;9481;-78
2023/10/24 16:00:20;;;;;;;;;;;12.60;99.90;;;;;;7320311;19;10602;-87
2023/10/24 16:02:49;;;;;;;;;;;12.50;99.90;;;;;;7306548;19;9093;-83
2023/10/24 16:05:18;;;;;;;;;;;12.60;99.90;;;;;;7312555;19;9305;-78
2023/10/24 16:07:46;;;;;;;;;;;12.60;99.90;;;;;;7314080;19;9524;-80
2023/10/24 16:10:18;;;;;;;;;;;12.70;99.90;;;;;;7312235;19;9407;-84
2023/10/24 16:12:47;;;;;;;;;;;12.80;99.90;;;;;;7313954;19;9584;-79
2023/10/24 16:15:16;;;;;;;;;;;12.80;99.90;;;;;;7311822;19;9261;-80
2023/10/24 16:17:45;;;;;;;;;;;12.80;99.90;;;;;;7311994;19;9811;-79
2023/10/24 16:20:14;;;;;;;;;;;12.90;99.90;;;;;;7313550;19;9448;-80
2023/10/24 16:22:43;;;;;;;;;;;13.00;99.90;;;;;;7309183;19;10735;-81
2023/10/24 16:25:12;;;;;;;;;;;13.00;99.90;;;;;;7311958;19;9336;-78
2023/10/24 16:27:43;;;;;;;;;;;12.90;99.90;;;;;;7318422;19;9567;-79
2023/10/24 16:30:14;;;;;;;;;;;12.80;99.90;;;;;;7305446;19;9305;-81
2023/10/24 16:32:43;;;;;;;;;;;12.80;99.90;;;;;;7307382;19;9472;-81
2023/10/24 16:35:12;;;;;;;;;;;12.70;99.90;;;;;;7316260;19;9463;-80
2023/10/24 16:37:41;;;;;;;;;;;12.70;99.90;;;;;;7309902;19;13800;-81
2023/10/24 16:40:11;;;;;;;;;;;12.60;99.90;;;;;;7318376;19;9169;-82
2023/10/24 16:42:43;;;;;;;;;;;12.60;99.90;;;;;;7317352;19;9233;-79
2023/10/24 16:45:12;;;;;;;;;;;12.60;99.90;;;;;;7313641;19;9605;-79
2023/10/24 16:47:41;;;;;;;;;;;12.60;99.90;;;;;;7311674;19;9591;-78
2023/10/24 16:50:10;;;;;;;;;;;12.60;99.90;;;;;;7310622;19;9375;-79
2023/10/24 16:52:39;;;;;;;;;;;12.60;99.90;;;;;;7315098;19;9191;-78
2023/10/24 16:55:09;;;;;;;;;;;12.50;99.90;;;;;;7317155;19;9708;-77
2023/10/24 16:57:38;;;;;;;;;;;12.60;99.90;;;;;;7306963;19;10887;-79
2023/10/24 17:00:12;;;;;;;;;;;12.50;99.90;;;;;;7311346;19;9250;-78
2023/10/24 17:02:41;;;;;;;;;;;12.60;99.90;;;;;;7309541;19;9301;-78
2023/10/24 17:05:11;;;;;;;;;;;12.50;99.90;;;;;;7310893;19;9436;-77
2023/10/24 17:07:43;;;;;;;;;;;12.50;99.90;;;;;;7306890;19;9489;-80
2023/10/24 17:10:13;;;;;;;;;;;12.50;99.90;;;;;;7317598;19;9461;-81
2023/10/24 17:12:42;;;;;;;;;;;12.50;99.90;;;;;;7317086;19;9471;-81
2023/10/24 17:15:14;;;;;;;;;;;12.40;99.90;;;;;;7317344;19;9509;-78
2023/10/24 17:17:43;;;;;;;;;;;12.40;99.90;;;;;;7317245;19;9233;-83
2023/10/24 17:20:13;;;;;;;;;;;12.30;99.90;;;;;;7321126;19;9507;-81
2023/10/24 17:22:42;;;;;;;;;;;12.30;99.90;;;;;;7318535;19;9461;-80
2023/10/24 17:25:12;;;;;;;;;;;12.30;99.90;;;;;;7316105;19;9230;-82
2023/10/24 17:27:44;;;;;;;;;;;12.30;99.90;;;;;;7314657;19;9468;-81
2023/10/24 17:30:16;;;;;;;;;;;12.30;99.90;;;;;;7318213;19;9282;-77
2023/10/24 17:32:45;;;;;;;;;;;12.30;99.90;;;;;;7303267;19;9117;-79
2023/10/24 17:35:14;;;;;;;;;;;12.20;99.90;;;;;;7311468;19;9612;-79
2023/10/24 17:37:43;;;;;;;;;;;12.20;99.90;;;;;;7305360;19;9111;-78
2023/10/24 17:40:13;;;;;;;;;;;12.20;99.90;;;;;;7311356;19;9393;-79
2023/10/24 17:42:44;;;;;;;;;;;12.10;99.90;;;;;;7311301;19;9353;-79
2023/10/24 17:45:15;;;;;;;;;;;12.20;99.90;;;;;;7314620;19;9261;-78
2023/10/24 17:47:44;;;;;;;;;;;12.20;99.90;;;;;;7317185;19;9237;-79
2023/10/24 17:50:13;;;;;;;;;;;12.10;99.90;;;;;;7317747;19;9321;-78
2023/10/24 17:52:42;;;;;;;;;;;12.20;99.90;;;;;;7316630;19;9424;-78
2023/10/24 17:55:11;;;;;;;;;;;12.30;99.90;;;;;;7317608;19;9328;-77
2023/10/24 17:57:40;;;;;;;;;;;12.30;99.90;;;;;;7318227;19;9257;-77
2023/10/24 18:00:10;;;;;;;;;;;12.30;99.90;;;;;;7314644;19;9219;-77
2023/10/24 18:02:42;;;;;;;;;;;12.40;99.90;;;;;;7317068;19;9351;-79
2023/10/24 18:05:11;;;;;;;;;;;12.40;99.90;;;;;;7315560;19;9608;-77
2023/10/24 18:07:40;;;;;;;;;;;12.30;99.90;;;;;;7314283;19;9225;-76
2023/10/24 18:10:10;;;;;;;;;;;12.40;99.90;;;;;;7317632;19;10387;-76
2023/10/24 18:12:39;;;;;;;;;;;12.40;99.90;;;;;;7314623;19;9254;-75
2023/10/24 18:15:12;;;;;;;;;;;12.30;99.90;;;;;;7313889;19;10804;-75
2023/10/24 18:17:43;;;;;;;;;;;12.30;99.90;;;;;;7313874;19;9123;-78
2023/10/24 18:20:13;;;;;;;;;;;12.30;99.90;;;;;;7312927;19;9233;-77
2023/10/24 18:22:43;;;;;;;;;;;12.30;99.90;;;;;;7314330;19;9382;-78
2023/10/24 18:25:12;;;;;;;;;;;12.20;99.90;;;;;;7317488;19;9499;-78
2023/10/24 18:27:41;;;;;;;;;;;12.20;99.90;;;;;;7315048;19;9237;-77
2023/10/24 18:30:10;;;;;;;;;;;12.20;99.90;;;;;;7311282;19;9500;-76
2023/10/24 18:32:39;;;;;;;;;;;12.10;99.90;;;;;;7307477;19;11403;-74
2023/10/24 18:35:12;;;;;;;;;;;12.20;99.90;;;;;;7312738;19;8953;-75
2023/10/24 18:37:41;;;;;;;;;;;12.20;99.90;;;;;;7313670;19;9129;-75
2023/10/24 18:40:12;;;;;;;;;;;12.10;99.90;;;;;;7316298;19;10362;-75
2023/10/24 18:42:43;;;;;;;;;;;12.10;99.90;;;;;;7315034;19;9462;-75
2023/10/24 18:45:13;;;;;;;;;;;12.00;99.90;;;;;;7316134;19;10331;-78
2023/10/24 18:47:42;;;;;;;;;;;11.90;99.90;;;;;;7315315;19;9210;-75
2023/10/24 18:50:13;;;;;;;;;;;11.90;99.90;;;;;;7323798;19;9485;-77
2023/10/24 18:52:42;;;;;;;;;;;11.80;99.90;;;;;;7323105;19;9318;-76
2023/10/24 18:55:13;;;;;;;;;;;11.80;99.90;;;;;;7318881;19;9162;-78
2023/10/24 18:57:42;;;;;;;;;;;11.80;99.90;;;;;;7312693;19;9482;-78
2023/10/24 19:00:12;;;;;;;;;;;11.80;99.90;;;;;;7321704;19;9295;-79
2023/10/24 19:02:41;;;;;;;;;;;11.70;99.90;;;;;;7318188;19;10519;-75
2023/10/24 19:05:13;;;;;;;;;;;11.60;99.90;;;;;;7315157;19;9462;-78
2023/10/24 19:07:43;;;;;;;;;;;11.60;99.90;;;;;;7317241;19;9293;-78
2023/10/24 19:10:14;;;;;;;;;;;11.60;99.90;;;;;;7317774;19;9225;-75
2023/10/24 19:12:43;;;;;;;;;;;11.60;99.90;;;;;;7312045;19;9242;-77
2023/10/24 19:15:13;;;;;;;;;;;11.60;99.90;;;;;;7311653;19;9486;-77
2023/10/24 19:17:43;;;;;;;;;;;11.60;99.90;;;;;;7312549;19;12602;-78
2023/10/24 19:20:15;;;;;;;;;;;11.70;99.90;;;;;;7318046;19;9596;-77
2023/10/24 19:22:44;;;;;;;;;;;11.70;99.90;;;;;;7317952;19;9753;-77
2023/10/24 19:25:15;;;;;;;;;;;11.70;99.90;;;;;;7321343;19;9642;-76
2023/10/24 19:27:44;;;;;;;;;;;11.70;99.90;;;;;;7320007;19;9566;-77
2023/10/24 19:30:15;;;;;;;;;;;11.80;99.90;;;;;;7321473;19;9573;-76
2023/10/24 19:32:44;;;;;;;;;;;11.90;99.90;;;;;;7318855;19;9297;-77
2023/10/24 19:35:18;;;;;;;;;;;11.90;99.90;;;;;;7316040;19;9416;-77
2023/10/24 19:37:49;;;;;;;;;;;11.90;99.90;;;;;;7310695;19;9429;-78
2023/10/24 19:40:18;;;;;;;;;;;11.80;99.90;;;;;;7308791;19;9485;-78
2023/10/24 19:42:48;;;;;;;;;;;11.70;99.90;;;;;;7317408;19;9383;-77
2023/10/24 19:45:18;;;;;;;;;;;11.80;99.90;;;;;;7317503;19;9237;-78
2023/10/24 19:47:55;;;;;;;;;;;11.80;99.90;;;;;;7307442;19;9173;-77
2023/10/24 19:50:27;;;;;;;;;;;11.70;99.90;;;;;;7314235;19;9354;-77
2023/10/24 19:52:56;;;;;;;;;;;11.70;99.90;;;;;;7314331;19;9349;-77
2023/10/24 19:55:26;;;;;;;;;;;11.70;99.90;;;;;;7309828;19;10324;-77
2023/10/24 19:57:57;;;;;;;;;;;11.70;99.90;;;;;;7317989;19;9268;-76
2023/10/24 20:00:27;;;;;;;;;;;11.60;99.90;;;;;;7319229;19;9320;-77
2023/10/24 20:02:56;;;;;;;;;;;11.60;99.90;;;;;;7312899;19;9121;-77
2023/10/24 20:05:29;;;;;;;;;;;11.70;99.90;;;;;;7305091;19;8956;-76
2023/10/24 20:08:00;;;;;;;;;;;11.80;99.90;;;;;;7315908;19;9479;-76
2023/10/24 20:10:30;;;;;;;;;;;11.80;99.90;;;;;;7318965;19;9350;-75
2023/10/24 20:13:00;;;;;;;;;;;11.70;99.90;;;;;;7318752;19;9436;-75
2023/10/24 20:15:30;;;;;;;;;;;11.70;99.90;;;;;;7321509;19;9233;-75
2023/10/24 20:18:03;;;;;;;;;;;11.70;99.90;;;;;;7318587;19;9239;-75
2023/10/24 20:20:35;;;;;;;;;;;11.70;99.90;;;;;;7318798;19;9139;-77
2023/10/24 20:23:05;;;;;;;;;;;11.60;99.90;;;;;;7320574;19;8944;-76
2023/10/24 20:25:34;;;;;;;;;;;11.60;99.90;;;;;;7317247;19;9558;-76
2023/10/24 20:28:03;;;;;;;;;;;11.50;99.90;;;;;;7315227;19;9362;-75
2023/10/24 20:30:34;;;;;;;;;;;11.50;99.90;;;;;;7317477;19;9495;-79